Time;durP1;ratioP1;P1;durP2;ratioP2;P2;SDS_P1;SDS_P2;PMS_P1;PMS_P2;Temp;Humidity;BMP_temperature;BMP_pressure;BME280_temperature;BME280_humidity;BME280_pressure;Samples;Min_cycle;Max_cycle;Signal;HPM_P1;HPM_P2
2022/02/25 00:02:17;;;;;;;7.05;0.93;;;2.80;99.90;;;;;;5047718;28;20056;-73
2022/02/25 00:04:42;;;;;;;4.07;1.95;;;2.80;99.90;;;;;;5049602;28;20025;-73
2022/02/25 00:07:08;;;;;;;8.95;1.10;;;2.80;99.90;;;;;;5048305;28;20029;-73
2022/02/25 00:09:33;;;;;;;6.70;0.90;;;2.80;99.90;;;;;;5045817;28;20040;-73
2022/02/25 00:11:59;;;;;;;6.88;1.20;;;2.80;99.90;;;;;;5051197;28;20032;-73
2022/02/25 00:14:25;;;;;;;8.68;1.02;;;2.80;99.90;;;;;;5048539;28;20032;-73
2022/02/25 00:16:51;;;;;;;13.30;1.50;;;2.80;99.90;;;;;;5051031;28;20496;-73
2022/02/25 00:19:17;;;;;;;5.18;0.95;;;2.80;99.90;;;;;;5048318;28;20085;-73
2022/02/25 00:21:42;;;;;;;5.03;0.80;;;2.80;99.90;;;;;;5049723;28;20032;-72
2022/02/25 00:24:08;;;;;;;5.45;1.42;;;2.80;99.90;;;;;;5049191;28;20021;-73
2022/02/25 00:26:35;;;;;;;12.43;1.35;;;2.80;99.90;;;;;;5048554;28;20032;-72
2022/02/25 00:29:01;;;;;;;6.03;1.15;;;2.80;99.90;;;;;;5046461;28;20040;-72
2022/02/25 00:31:26;;;;;;;4.22;1.08;;;2.80;99.90;;;;;;5048211;28;20032;-72
2022/02/25 00:33:52;;;;;;;5.85;1.20;;;2.80;99.90;;;;;;5038522;28;20052;-72
2022/02/25 00:36:17;;;;;;;5.28;1.40;;;2.70;99.90;;;;;;5046957;28;20025;-72
2022/02/25 00:38:43;;;;;;;6.10;1.58;;;2.70;99.90;;;;;;5047980;28;20029;-72
2022/02/25 00:41:09;;;;;;;5.97;1.33;;;2.70;99.90;;;;;;5047494;28;20476;-74
2022/02/25 00:43:34;;;;;;;4.10;0.95;;;2.70;99.90;;;;;;5049645;28;20040;-73
2022/02/25 00:46:00;;;;;;;6.80;1.30;;;2.60;99.90;;;;;;5043467;28;20425;-73
2022/02/25 00:48:25;;;;;;;7.65;1.52;;;2.60;99.90;;;;;;5048133;28;20021;-73
2022/02/25 00:50:51;;;;;;;5.72;1.63;;;2.60;99.90;;;;;;5047340;28;20028;-73
2022/02/25 00:53:16;;;;;;;6.00;1.73;;;2.60;99.90;;;;;;5044923;28;20064;-73
2022/02/25 00:55:42;;;;;;;4.65;1.70;;;2.60;99.90;;;;;;5047721;28;20039;-73
2022/02/25 00:58:07;;;;;;;9.40;2.08;;;2.60;99.90;;;;;;5044699;28;20398;-73
2022/02/25 01:00:33;;;;;;;7.85;1.90;;;2.60;99.90;;;;;;5046255;28;20025;-73
2022/02/25 01:02:58;;;;;;;7.22;2.15;;;2.70;99.90;;;;;;5050130;28;20096;-73
2022/02/25 01:05:24;;;;;;;6.07;2.10;;;2.60;99.90;;;;;;5047513;28;20492;-73
2022/02/25 01:07:49;;;;;;;7.00;2.05;;;2.60;99.90;;;;;;5044541;28;20103;-73
2022/02/25 01:10:17;;;;;;;6.57;2.25;;;2.60;99.90;;;;;;5044835;28;20428;-73
2022/02/25 01:12:45;;;;;;;9.07;2.33;;;2.60;99.90;;;;;;5045100;28;20059;-72
2022/02/25 01:15:12;;;;;;;9.93;2.67;;;2.60;99.90;;;;;;5046053;28;20021;-73
2022/02/25 01:17:38;;;;;;;7.28;2.72;;;2.60;99.90;;;;;;5047395;28;20393;-73
2022/02/25 01:20:06;;;;;;;6.07;2.50;;;2.60;99.90;;;;;;5047708;28;20021;-73
2022/02/25 01:22:32;;;;;;;6.80;2.63;;;2.60;99.90;;;;;;5047699;28;20028;-73
2022/02/25 01:24:57;;;;;;;9.43;2.63;;;2.60;99.90;;;;;;5047883;28;20024;-73
2022/02/25 01:27:23;;;;;;;9.20;2.75;;;2.70;99.90;;;;;;5045423;28;20386;-73
2022/02/25 01:29:49;;;;;;;10.38;2.42;;;2.70;99.90;;;;;;5047092;28;20488;-73
2022/02/25 01:32:14;;;;;;;10.45;2.13;;;2.60;99.90;;;;;;5044843;28;20025;-73
2022/02/25 01:34:40;;;;;;;9.18;2.33;;;2.60;99.90;;;;;;5046592;28;20029;-73
2022/02/25 01:37:06;;;;;;;7.55;2.47;;;2.70;99.90;;;;;;5048258;28;20043;-72
2022/02/25 01:39:32;;;;;;;8.13;2.50;;;2.70;99.90;;;;;;5046620;28;20033;-73
2022/02/25 01:41:58;;;;;;;7.85;2.65;;;2.70;99.90;;;;;;5049521;28;20067;-73
2022/02/25 01:44:26;;;;;;;10.48;2.33;;;2.70;99.90;;;;;;5048156;28;20041;-73
2022/02/25 01:46:57;;;;;;;12.63;3.20;;;2.70;99.90;;;;;;5045284;28;20469;-73
2022/02/25 01:49:23;;;;;;;8.55;2.50;;;2.70;99.90;;;;;;5046843;28;20112;-73
2022/02/25 01:51:53;;;;;;;5.88;2.67;;;2.70;99.90;;;;;;5045475;28;20431;-73
2022/02/25 01:54:19;;;;;;;7.10;2.50;;;2.70;99.90;;;;;;5049267;28;20025;-73
2022/02/25 01:56:44;;;;;;;8.60;2.55;;;2.70;99.90;;;;;;5046674;28;20037;-73
2022/02/25 01:59:13;;;;;;;10.05;2.80;;;2.70;99.90;;;;;;5048984;28;20029;-73
2022/02/25 02:01:39;;;;;;;12.90;2.88;;;2.70;99.90;;;;;;5046632;28;20326;-73
2022/02/25 02:04:05;;;;;;;5.68;2.40;;;2.70;99.90;;;;;;5049133;28;20032;-73
2022/02/25 02:06:32;;;;;;;5.18;2.50;;;2.70;99.90;;;;;;5040445;28;20188;-73
2022/02/25 02:08:58;;;;;;;8.43;2.67;;;2.70;99.90;;;;;;5044298;28;20104;-73
2022/02/25 02:11:32;;;;;;;7.10;2.65;;;2.80;99.90;;;;;;5046532;28;20108;-73
2022/02/25 02:14:00;;;;;;;10.02;2.63;;;2.80;99.90;;;;;;5044234;28;20108;-73
2022/02/25 02:16:26;;;;;;;10.63;2.40;;;2.70;99.90;;;;;;5046305;28;20095;-73
2022/02/25 02:18:53;;;;;;;8.63;2.15;;;2.80;99.90;;;;;;5048682;28;20037;-73
2022/02/25 02:21:23;;;;;;;6.00;2.30;;;2.70;99.90;;;;;;5048880;28;20025;-73
2022/02/25 02:23:48;;;;;;;;;;;2.70;99.90;;;;;;5046561;28;20337;-73
2022/02/25 02:26:14;;;;;;;6.05;2.00;;;2.70;99.90;;;;;;5046511;28;19962;-73
2022/02/25 02:28:39;;;;;;;6.63;2.30;;;2.70;99.90;;;;;;5039750;28;20032;-73
2022/02/25 02:31:05;;;;;;;8.43;2.00;;;2.70;99.90;;;;;;5043243;28;20028;-73
2022/02/25 02:33:30;;;;;;;9.55;2.65;;;2.70;99.90;;;;;;5041256;28;20494;-73
2022/02/25 02:35:56;;;;;;;9.13;3.08;;;2.70;99.90;;;;;;5040118;28;20032;-73
2022/02/25 02:38:22;;;;;;;6.10;2.10;;;2.70;99.90;;;;;;5038939;28;20033;-73
2022/02/25 02:40:47;;;;;;;8.70;3.40;;;2.70;99.90;;;;;;5044924;28;20123;-73
2022/02/25 02:43:13;;;;;;;10.68;2.35;;;2.70;99.90;;;;;;5048173;28;20080;-73
2022/02/25 02:45:40;;;;;;;12.43;2.92;;;2.70;99.90;;;;;;5045871;28;20052;-73
2022/02/25 02:48:05;;;;;;;8.68;3.22;;;2.70;99.90;;;;;;5048563;28;20029;-73
2022/02/25 02:50:31;;;;;;;5.80;2.15;;;2.70;99.90;;;;;;5048212;28;20558;-73
2022/02/25 02:52:57;;;;;;;8.85;2.50;;;2.70;99.90;;;;;;5046091;28;20379;-73
2022/02/25 02:55:22;;;;;;;9.95;2.78;;;2.70;99.90;;;;;;5045553;28;20086;-73
2022/02/25 02:57:49;;;;;;;8.50;2.25;;;2.70;99.90;;;;;;5048385;28;20452;-74
2022/02/25 03:00:15;;;;;;;9.93;2.80;;;2.70;99.90;;;;;;5061181;28;20024;-73
2022/02/25 03:02:41;;;;;;;3.58;1.65;;;2.70;99.90;;;;;;5046922;28;20108;-74
2022/02/25 03:05:07;;;;;;;5.15;1.88;;;2.70;99.90;;;;;;5045423;28;20017;-73
2022/02/25 03:07:33;;;;;;;9.57;2.22;;;2.70;99.90;;;;;;5048118;28;20079;-73
2022/02/25 03:09:58;;;;;;;4.38;1.80;;;2.70;99.90;;;;;;5048412;28;20025;-74
2022/02/25 03:12:24;;;;;;;8.75;2.17;;;2.70;99.90;;;;;;5042428;28;20179;-73
2022/02/25 03:14:50;;;;;;;8.20;1.90;;;2.70;99.90;;;;;;5043763;28;20456;-73
2022/02/25 03:17:15;;;;;;;9.68;1.70;;;2.70;99.90;;;;;;5044474;28;20025;-73
2022/02/25 03:19:42;;;;;;;9.23;2.30;;;2.70;99.90;;;;;;5046114;28;20029;-73
2022/02/25 03:22:08;;;;;;;7.32;2.00;;;2.70;99.90;;;;;;5044486;28;20064;-73
2022/02/25 03:24:33;;;;;;;8.98;1.95;;;2.70;99.90;;;;;;5045188;28;20044;-74
2022/02/25 03:26:59;;;;;;;7.75;1.80;;;2.70;99.90;;;;;;5045383;28;20064;-73
2022/02/25 03:29:24;;;;;;;10.73;2.03;;;2.70;99.90;;;;;;5042719;28;20024;-74
2022/02/25 03:31:50;;;;;;;9.45;2.10;;;2.70;99.90;;;;;;5046603;28;20040;-73
2022/02/25 03:34:16;;;;;;;10.00;2.25;;;2.70;99.90;;;;;;5045171;28;20397;-73
2022/02/25 03:36:42;;;;;;;8.30;2.15;;;2.70;99.90;;;;;;5046408;28;20037;-73
2022/02/25 03:39:07;;;;;;;10.57;1.92;;;2.70;99.90;;;;;;5048351;28;20025;-72
2022/02/25 03:41:33;;;;;;;8.65;2.10;;;2.70;99.90;;;;;;5046024;28;20152;-73
2022/02/25 03:43:59;;;;;;;8.48;1.85;;;2.70;99.90;;;;;;5046447;28;20100;-72
2022/02/25 03:46:24;;;;;;;8.80;2.00;;;2.70;99.90;;;;;;5049583;28;20028;-72
2022/02/25 03:48:50;;;;;;;6.53;1.90;;;2.70;99.90;;;;;;5051510;28;20021;-72
2022/02/25 03:51:17;;;;;;;7.03;1.88;;;2.80;99.90;;;;;;5047581;28;20029;-73
2022/02/25 03:53:42;;;;;;;8.60;1.80;;;2.70;99.90;;;;;;5050306;28;20116;-72
2022/02/25 03:56:08;;;;;;;8.35;2.22;;;2.70;99.90;;;;;;5046117;28;20113;-72
2022/02/25 03:58:34;;;;;;;8.57;1.88;;;2.80;99.90;;;;;;5047263;28;20048;-73
2022/02/25 04:00:59;;;;;;;10.18;1.90;;;2.80;99.90;;;;;;5050127;28;20104;-72
2022/02/25 04:03:25;;;;;;;9.43;1.85;;;2.80;99.90;;;;;;5051743;28;20020;-72
2022/02/25 04:05:50;;;;;;;12.45;2.75;;;2.80;99.90;;;;;;5048980;28;20045;-72
2022/02/25 04:08:16;;;;;;;12.27;2.08;;;2.80;99.90;;;;;;5048631;28;20087;-72
2022/02/25 04:10:42;;;;;;;14.00;2.15;;;2.80;99.90;;;;;;5045756;28;20030;-72
2022/02/25 04:13:07;;;;;;;9.95;1.88;;;2.70;99.90;;;;;;5049878;28;20029;-72
2022/02/25 04:15:33;;;;;;;10.35;2.60;;;2.80;99.90;;;;;;5045230;28;20049;-72
2022/02/25 04:17:59;;;;;;;8.05;2.05;;;2.80;99.90;;;;;;5045005;28;20051;-72
2022/02/25 04:20:25;;;;;;;9.00;1.98;;;2.70;99.90;;;;;;5047347;28;20049;-72
2022/02/25 04:22:54;;;;;;;9.13;1.83;;;2.80;99.90;;;;;;5049574;28;20423;-72
2022/02/25 04:25:19;;;;;;;11.32;2.22;;;2.80;99.90;;;;;;5045614;28;20028;-72
2022/02/25 04:27:45;;;;;;;11.45;1.95;;;2.80;99.90;;;;;;5049622;28;20021;-72
2022/02/25 04:30:11;;;;;;;14.07;2.45;;;2.80;99.90;;;;;;5050810;28;20017;-72
2022/02/25 04:32:37;;;;;;;9.35;1.52;;;2.80;99.90;;;;;;5048216;28;20473;-72
2022/02/25 04:35:03;;;;;;;8.93;2.03;;;2.80;99.90;;;;;;5049433;28;20028;-72
2022/02/25 04:37:30;;;;;;;5.35;1.13;;;2.80;99.90;;;;;;5044124;28;20115;-72
2022/02/25 04:39:56;;;;;;;12.90;1.75;;;2.80;99.90;;;;;;5048202;28;20027;-72
2022/02/25 04:42:22;;;;;;;13.32;2.13;;;2.80;99.90;;;;;;5045106;28;20037;-72
2022/02/25 04:44:48;;;;;;;11.32;1.45;;;2.80;99.90;;;;;;5046713;28;20063;-72
2022/02/25 04:47:14;;;;;;;10.73;1.98;;;2.80;99.90;;;;;;5045678;28;20053;-71
2022/02/25 04:49:39;;;;;;;8.40;1.77;;;2.80;99.90;;;;;;5047105;28;20033;-72
2022/02/25 04:52:06;;;;;;;11.25;2.17;;;2.70;99.90;;;;;;5049226;28;20481;-72
2022/02/25 04:54:32;;;;;;;7.30;1.52;;;2.80;99.90;;;;;;5047695;28;20032;-72
2022/02/25 04:56:58;;;;;;;8.90;1.73;;;2.80;99.90;;;;;;5044935;28;20366;-71
2022/02/25 04:59:23;;;;;;;9.85;1.58;;;2.70;99.90;;;;;;5049054;28;20550;-71
2022/02/25 05:01:49;;;;;;;9.27;1.70;;;2.70;99.90;;;;;;5044947;28;20056;-72
2022/02/25 05:04:14;;;;;;;9.85;2.47;;;2.70;99.90;;;;;;5050272;28;20025;-72
2022/02/25 05:06:40;;;;;;;10.60;1.83;;;2.70;99.90;;;;;;5047459;28;20143;-73
2022/02/25 05:09:05;;;;;;;11.15;1.95;;;2.70;99.90;;;;;;5045764;28;20854;-72
2022/02/25 05:11:31;;;;;;;13.18;1.77;;;2.70;99.90;;;;;;5048187;28;20400;-72
2022/02/25 05:13:57;;;;;;;13.52;1.77;;;2.70;99.90;;;;;;5050099;28;20500;-72
2022/02/25 05:22:12;;;;;;;11.32;2.00;;;2.70;99.90;;;;;;4949480;29;20547;-72
2022/02/25 05:24:37;;;;;;;15.45;2.33;;;2.70;99.90;;;;;;5009039;28;20163;-72
2022/02/25 05:27:03;;;;;;;13.00;1.48;;;2.70;99.90;;;;;;5048456;28;20099;-72
2022/02/25 05:29:28;;;;;;;11.15;1.73;;;2.70;99.90;;;;;;5044372;28;20033;-72
2022/02/25 05:31:54;;;;;;;10.85;1.77;;;2.70;99.90;;;;;;5047046;28;20448;-72
2022/02/25 05:34:19;;;;;;;8.90;2.00;;;2.80;99.90;;;;;;5046987;28;20029;-72
2022/02/25 05:36:45;;;;;;;10.77;2.10;;;2.80;99.90;;;;;;5048379;28;20021;-72
2022/02/25 05:39:10;;;;;;;15.45;3.03;;;2.80;99.90;;;;;;5047824;28;20036;-72
2022/02/25 05:41:36;;;;;;;9.95;1.90;;;2.90;99.90;;;;;;5049458;28;20509;-72
2022/02/25 05:44:01;;;;;;;15.02;2.10;;;2.90;99.90;;;;;;5048195;28;20023;-72
2022/02/25 05:46:27;;;;;;;10.30;1.65;;;2.90;99.90;;;;;;5046791;28;20503;-73
2022/02/25 05:48:52;;;;;;;12.38;2.28;;;3.00;99.90;;;;;;5045128;28;20107;-72
2022/02/25 05:51:18;;;;;;;15.82;2.03;;;3.00;99.90;;;;;;5044138;28;20034;-73
2022/02/25 05:53:43;;;;;;;14.18;2.22;;;3.10;99.90;;;;;;5049484;28;20112;-73
2022/02/25 05:56:09;;;;;;;12.18;2.00;;;3.10;99.90;;;;;;5049395;28;20786;-72
2022/02/25 05:58:34;;;;;;;9.73;2.10;;;3.10;99.90;;;;;;5043610;28;20033;-73
2022/02/25 06:01:00;;;;;;;10.75;3.00;;;3.10;99.90;;;;;;5044977;28;20013;-73
2022/02/25 06:03:25;;;;;;;12.82;2.08;;;3.20;99.90;;;;;;5046185;28;20025;-73
2022/02/25 06:05:51;;;;;;;11.30;1.90;;;3.20;99.90;;;;;;5049123;28;20051;-73
2022/02/25 06:08:16;;;;;;;10.32;2.00;;;3.20;99.90;;;;;;5040862;28;20049;-72
2022/02/25 06:10:42;;;;;;;9.57;1.70;;;3.30;99.90;;;;;;5046741;28;20032;-73
2022/02/25 06:13:08;;;;;;;10.82;1.67;;;3.30;99.90;;;;;;5038475;28;20072;-73
2022/02/25 06:15:33;;;;;;;14.02;2.42;;;3.40;99.90;;;;;;5048697;28;20061;-72
2022/02/25 06:17:59;;;;;;;9.02;1.45;;;3.40;99.90;;;;;;5047429;28;20075;-73
2022/02/25 06:20:24;;;;;;;11.82;1.98;;;3.40;99.90;;;;;;5047804;28;20037;-72
2022/02/25 06:22:50;;;;;;;9.15;2.22;;;3.40;99.90;;;;;;5048927;28;20915;-72
2022/02/25 06:25:16;;;;;;;13.63;2.42;;;3.40;99.90;;;;;;5042465;28;20021;-72
2022/02/25 06:27:42;;;;;;;13.32;1.98;;;3.40;99.90;;;;;;5044319;28;20023;-72
2022/02/25 06:30:10;;;;;;;15.45;2.28;;;3.40;99.90;;;;;;5034781;28;20017;-72
2022/02/25 06:32:37;;;;;;;14.65;2.10;;;3.50;99.90;;;;;;5032811;28;20482;-72
2022/02/25 06:35:02;;;;;;;12.15;1.60;;;3.50;99.90;;;;;;5030831;28;20060;-72
2022/02/25 06:37:28;;;;;;;10.20;1.98;;;3.50;99.90;;;;;;5031410;28;20045;-73
2022/02/25 06:39:55;;;;;;;15.15;2.25;;;3.50;99.90;;;;;;5032334;28;20043;-73
2022/02/25 06:42:20;;;;;;;13.70;2.17;;;3.50;99.90;;;;;;5031336;28;20417;-72
2022/02/25 06:44:46;;;;;;;15.30;1.83;;;3.50;99.90;;;;;;5031610;28;20057;-72
2022/02/25 06:47:11;;;;;;;12.63;2.22;;;3.40;99.90;;;;;;5032567;28;20433;-72
2022/02/25 06:49:39;;;;;;;14.48;2.47;;;3.50;99.90;;;;;;5031498;28;20025;-72
2022/02/25 06:52:05;;;;;;;10.77;2.65;;;3.50;99.90;;;;;;5031324;28;20060;-72
2022/02/25 06:54:30;;;;;;;10.13;2.40;;;3.50;99.90;;;;;;5032657;28;20029;-72
2022/02/25 06:56:58;;;;;;;15.07;3.30;;;3.50;99.90;;;;;;5031316;28;20030;-72
2022/02/25 06:59:24;;;;;;;17.27;3.03;;;3.50;99.90;;;;;;5031240;28;20532;-72
2022/02/25 07:01:49;;;;;;;17.15;2.78;;;3.50;99.90;;;;;;5032627;28;20100;-72
2022/02/25 07:04:15;;;;;;;14.90;2.47;;;3.50;99.90;;;;;;5032400;28;20029;-72
2022/02/25 07:06:40;;;;;;;12.60;2.08;;;3.50;99.90;;;;;;5039906;28;20104;-72
2022/02/25 07:09:06;;;;;;;8.40;2.25;;;3.50;99.90;;;;;;5052445;28;20025;-72
2022/02/25 07:11:32;;;;;;;22.73;3.90;;;3.60;99.90;;;;;;5051396;28;20408;-73
2022/02/25 07:13:58;;;;;;;13.70;2.42;;;3.60;99.90;;;;;;5050356;28;20033;-73
2022/02/25 07:16:23;;;;;;;15.48;3.00;;;3.70;99.90;;;;;;5056129;28;20033;-72
2022/02/25 07:18:49;;;;;;;14.82;2.38;;;3.70;99.90;;;;;;5056423;28;20081;-73
2022/02/25 07:21:15;;;;;;;22.30;3.53;;;3.80;99.90;;;;;;5043786;28;20509;-73
2022/02/25 07:23:40;;;;;;;14.52;2.50;;;3.80;99.90;;;;;;5036620;28;20025;-73
2022/02/25 07:26:10;;;;;;;13.82;2.65;;;3.90;99.90;;;;;;5035107;28;20028;-73
2022/02/25 07:28:35;;;;;;;15.63;2.35;;;3.90;99.90;;;;;;5036353;28;20036;-73
2022/02/25 07:31:01;;;;;;;11.35;2.00;;;4.00;99.90;;;;;;5048274;28;20033;-73
2022/02/25 07:33:26;;;;;;;16.98;2.58;;;4.00;99.90;;;;;;5064089;28;20444;-73
2022/02/25 07:35:53;;;;;;;18.63;3.05;;;4.00;99.90;;;;;;5054601;28;20028;-73
2022/02/25 07:38:18;;;;;;;16.45;3.03;;;4.10;99.90;;;;;;5056021;28;20472;-73
2022/02/25 07:40:44;;;;;;;10.50;2.28;;;4.10;99.90;;;;;;5056165;28;20036;-73
2022/02/25 07:43:12;;;;;;;14.43;2.50;;;4.10;99.90;;;;;;5070405;28;20041;-71
2022/02/25 07:45:38;;;;;;;18.40;2.97;;;4.20;99.90;;;;;;5053129;28;20045;-71
2022/02/25 07:48:05;;;;;;;14.85;2.05;;;4.20;99.90;;;;;;5052862;28;20057;-70
2022/02/25 07:50:31;;;;;;;12.68;2.33;;;4.30;99.90;;;;;;5070912;28;20025;-69
2022/02/25 07:52:56;;;;;;;12.98;2.45;;;4.30;99.90;;;;;;5055872;28;20103;-71
2022/02/25 07:55:22;;;;;;;11.82;2.10;;;4.40;99.90;;;;;;5055788;28;20017;-69
2022/02/25 07:57:47;;;;;;;12.82;2.00;;;4.40;99.90;;;;;;5053591;28;20499;-69
2022/02/25 08:00:15;;;;;;;12.75;1.98;;;4.50;99.90;;;;;;5055364;28;20041;-70
2022/02/25 08:02:42;;;;;;;18.27;2.15;;;4.60;99.90;;;;;;5055760;28;20025;-70
2022/02/25 08:05:08;;;;;;;14.52;3.13;;;4.70;99.90;;;;;;5053193;28;20032;-70
2022/02/25 08:07:34;;;;;;;13.80;1.98;;;4.80;99.90;;;;;;5052765;28;20021;-71
2022/02/25 08:10:00;;;;;;;16.00;2.47;;;4.80;99.90;;;;;;5055018;28;20104;-70
2022/02/25 08:12:26;;;;;;;13.52;1.75;;;4.80;99.90;;;;;;5055572;28;20024;-70
2022/02/25 08:14:53;;;;;;;15.82;2.17;;;4.90;99.90;;;;;;5054238;28;20477;-69
2022/02/25 08:17:19;;;;;;;10.90;2.00;;;4.90;99.90;;;;;;5055358;28;20139;-71
2022/02/25 08:19:45;;;;;;;13.60;1.92;;;4.90;99.90;;;;;;5052250;28;20120;-70
2022/02/25 08:22:10;;;;;;;15.38;2.45;;;5.00;99.90;;;;;;5052052;28;20504;-71
2022/02/25 08:24:36;;;;;;;15.52;1.98;;;5.10;99.90;;;;;;5054076;28;20032;-71
2022/02/25 08:27:01;;;;;;;10.15;1.83;;;5.30;99.90;;;;;;5053540;28;20017;-71
2022/02/25 08:29:27;;;;;;;7.90;1.60;;;5.40;99.90;;;;;;5053307;28;20020;-71
2022/02/25 08:31:53;;;;;;;9.88;1.77;;;5.60;99.90;;;;;;5053935;28;20044;-71
2022/02/25 08:34:19;;;;;;;10.40;1.92;;;5.70;99.90;;;;;;5053187;28;20193;-73
2022/02/25 08:36:45;;;;;;;8.10;1.35;;;5.90;99.90;;;;;;5049747;28;20118;-72
2022/02/25 08:39:10;;;;;;;12.73;2.08;;;6.00;99.90;;;;;;5040800;28;20473;-72
2022/02/25 08:41:36;;;;;;;12.38;2.03;;;6.10;99.90;;;;;;5052830;28;20115;-72
2022/02/25 08:44:02;;;;;;;13.52;2.30;;;6.20;99.90;;;;;;5052869;28;20017;-71
2022/02/25 08:46:29;;;;;;;16.10;2.05;;;6.20;99.90;;;;;;5065544;28;20040;-71
2022/02/25 08:48:56;;;;;;;10.40;1.70;;;6.30;99.90;;;;;;5054583;28;20485;-72
2022/02/25 08:51:21;;;;;;;12.60;1.77;;;6.40;99.90;;;;;;5055000;28;20045;-71
2022/02/25 08:53:47;;;;;;;13.85;2.30;;;6.50;99.90;;;;;;5051995;28;20059;-71
2022/02/25 08:56:13;;;;;;;13.57;1.80;;;6.50;99.90;;;;;;5034542;28;20037;-71
2022/02/25 08:58:38;;;;;;;10.73;3.00;;;6.60;99.90;;;;;;5034125;28;20034;-71
2022/02/25 09:01:04;;;;;;;11.65;1.88;;;6.70;99.90;;;;;;5067783;28;20075;-71
2022/02/25 09:03:30;;;;;;;18.95;2.40;;;6.80;99.90;;;;;;5054056;28;20079;-72
2022/02/25 09:05:55;;;;;;;14.30;2.25;;;6.90;99.90;;;;;;5053918;28;20021;-72
2022/02/25 09:08:21;;;;;;;12.45;1.75;;;7.10;99.90;;;;;;5069508;28;20090;-72
2022/02/25 09:10:48;;;;;;;13.18;2.53;;;7.30;99.90;;;;;;5052932;28;20401;-73
2022/02/25 09:13:14;;;;;;;8.65;2.15;;;7.40;99.90;;;;;;5052837;28;20060;-72
2022/02/25 09:15:39;;;;;;;14.40;2.30;;;7.50;99.70;;;;;;5053998;28;20442;-72
2022/02/25 09:18:05;;;;;;;11.48;2.40;;;7.50;99.00;;;;;;5053969;28;20036;-71
2022/02/25 09:20:32;;;;;;;15.02;1.92;;;7.50;98.60;;;;;;5043217;28;20482;-72
2022/02/25 09:22:58;;;;;;;12.13;2.00;;;7.50;98.20;;;;;;5032977;28;20049;-72
2022/02/25 09:25:25;;;;;;;15.82;2.67;;;7.50;98.10;;;;;;5034079;28;20053;-72
2022/02/25 09:27:51;;;;;;;13.02;2.72;;;7.60;97.90;;;;;;5034361;28;20064;-72
2022/02/25 09:30:16;;;;;;;11.60;1.75;;;7.70;97.50;;;;;;5049106;28;20412;-72
2022/02/25 09:32:42;;;;;;;12.48;2.00;;;7.70;97.40;;;;;;5053613;28;20302;-72
2022/02/25 09:35:08;;;;;;;19.30;2.08;;;7.80;97.30;;;;;;5053941;28;20032;-72
2022/02/25 09:37:35;;;;;;;15.43;2.05;;;7.90;96.90;;;;;;5052768;28;20468;-72
2022/02/25 09:40:12;;;;;;;11.93;2.13;;;8.00;96.60;;;;;;5068748;28;20381;-72
2022/02/25 09:42:39;;;;;;;11.98;1.95;;;8.10;96.50;;;;;;5032331;28;20045;-72
2022/02/25 09:45:06;;;;;;;19.77;2.75;;;8.00;96.00;;;;;;5033713;28;20032;-72
2022/02/25 09:47:35;;;;;;;8.05;1.17;;;7.90;95.70;;;;;;5048550;28;20025;-72
2022/02/25 09:50:02;;;;;;;15.07;2.13;;;7.80;95.40;;;;;;5033571;28;20045;-71
2022/02/25 09:52:29;;;;;;;11.02;1.98;;;7.80;95.00;;;;;;5033432;28;20057;-72
2022/02/25 09:54:54;;;;;;;14.02;1.80;;;7.80;95.10;;;;;;5032941;28;20030;-71
2022/02/25 09:57:20;;;;;;;8.88;1.90;;;7.80;95.10;;;;;;5033447;28;20036;-71
2022/02/25 09:59:45;;;;;;;8.90;1.83;;;7.70;95.20;;;;;;5040230;28;20507;-72
2022/02/25 10:02:11;;;;;;;11.50;1.60;;;7.70;95.20;;;;;;5049637;28;20071;-71
2022/02/25 10:04:37;;;;;;;11.18;1.88;;;7.70;95.10;;;;;;5053256;28;20047;-71
2022/02/25 10:07:22;;;;;;;14.68;2.00;;;7.70;95.20;;;;;;5053541;28;20524;-71
2022/02/25 10:09:51;;;;;;;9.52;1.73;;;7.80;95.30;;;;;;5051822;28;20084;-71
2022/02/25 10:12:16;;;;;;;11.05;1.88;;;7.90;95.30;;;;;;5053096;28;20091;-71
2022/02/25 10:14:47;;;;;;;13.30;1.73;;;8.00;95.20;;;;;;5053157;28;20029;-71
2022/02/25 10:17:14;;;;;;;9.63;1.92;;;8.00;95.00;;;;;;5053052;28;20063;-71
2022/02/25 10:19:48;;;;;;;11.80;2.28;;;8.00;94.90;;;;;;5048912;28;20032;-71
2022/02/25 10:22:26;;;;;;;14.85;2.10;;;8.00;94.70;;;;;;5033114;28;20516;-72
2022/02/25 10:24:58;;;;;;;8.70;1.45;;;8.10;94.70;;;;;;5036084;28;20029;-72
2022/02/25 10:27:26;;;;;;;10.63;1.63;;;8.40;94.80;;;;;;5052916;28;20074;-72
2022/02/25 10:30:15;;;;;;;9.85;1.90;;;8.80;94.40;;;;;;5052702;28;20052;-72
2022/02/25 10:32:47;;;;;;;8.93;1.77;;;9.30;93.70;;;;;;5052805;28;20025;-72
2022/02/25 10:35:21;;;;;;;8.07;1.30;;;10.00;93.70;;;;;;5052886;28;20471;-73
2022/02/25 10:38:07;;;;;;;9.50;1.35;;;11.50;93.90;;;;;;5052730;28;20515;-72
2022/02/25 10:40:37;;;;;;;7.38;1.80;;;13.40;88.90;;;;;;5052260;28;20550;-72
2022/02/25 10:43:28;;;;;;;8.95;1.25;;;14.00;80.40;;;;;;5051889;28;20065;-72
2022/02/25 10:45:56;;;;;;;9.93;1.80;;;14.30;75.40;;;;;;5048115;28;20413;-72
2022/02/25 10:48:27;;;;;;;11.50;1.70;;;15.00;73.60;;;;;;5048752;28;20023;-72
2022/02/25 10:50:58;;;;;;;9.80;1.48;;;16.00;68.70;;;;;;5050550;28;20033;-72
2022/02/25 10:53:47;;;;;;;8.38;1.38;;;16.10;66.60;;;;;;5045141;28;20116;-72
2022/02/25 10:56:18;;;;;;;7.65;1.67;;;16.10;65.50;;;;;;5049550;28;20402;-72
2022/02/25 10:58:52;;;;;;;10.68;1.70;;;16.30;64.60;;;;;;5050518;28;20526;-72
2022/02/25 11:05:01;;;;;;;5.43;1.33;;;16.60;61.60;;;;;;5046038;28;20119;-72
2022/02/25 11:07:28;;;;;;;9.05;2.17;;;16.00;61.70;;;;;;5048162;28;20143;-72
2022/02/25 11:43:39;;;;;;;9.50;1.38;;;11.00;75.50;;;;;;4681327;28;20517;-66
2022/02/25 11:46:14;;;;;;;8.23;1.40;;;10.90;76.20;;;;;;5048623;28;20127;-66
2022/02/25 11:49:12;;;;;;;11.27;1.58;;;10.90;76.60;;;;;;5052151;28;20100;-65
2022/02/25 11:51:41;;;;;;;11.90;1.80;;;10.90;76.80;;;;;;5050016;28;20040;-65
2022/02/25 11:54:28;;;;;;;;;;;10.70;77.20;;;;;;5051056;28;20036;-66
2022/02/25 11:56:57;;;;;;;10.48;1.92;;;10.90;76.90;;;;;;5057688;28;19905;-65
2022/02/25 11:59:49;;;;;;;7.85;1.90;;;10.60;76.20;;;;;;5050917;28;20120;-65
2022/02/25 12:02:19;;;;;;;11.65;1.60;;;10.40;78.20;;;;;;5062070;28;20017;-65
2022/02/25 12:05:05;;;;;;;6.07;1.23;;;10.00;79.40;;;;;;5043765;28;20029;-66
2022/02/25 12:07:40;;;;;;;6.30;0.90;;;9.80;79.90;;;;;;5044714;28;20083;-66
2022/02/25 12:10:12;;;;;;;4.97;1.20;;;9.60;80.10;;;;;;5038033;28;20025;-65
2022/02/25 12:13:04;;;;;;;3.53;0.57;;;9.40;80.60;;;;;;5065119;28;20021;-66
2022/02/25 12:15:39;;;;;;;9.45;0.90;;;9.30;81.00;;;;;;5051292;28;20037;-65
2022/02/25 12:18:10;;;;;;;5.05;1.25;;;9.20;82.40;;;;;;5050131;28;20037;-65
2022/02/25 12:20:49;;;;;;;8.95;1.25;;;9.00;83.50;;;;;;5053121;28;20018;-66
2022/02/25 12:23:37;;;;;;;6.82;1.10;;;8.90;84.10;;;;;;5049043;28;20036;-65
2022/02/25 12:26:05;;;;;;;8.77;1.90;;;8.80;84.60;;;;;;5050772;28;20167;-65
2022/02/25 12:28:33;;;;;;;8.38;1.20;;;8.60;85.60;;;;;;5051960;28;20057;-65
2022/02/25 12:31:04;;;;;;;5.60;1.00;;;8.50;86.00;;;;;;5050797;28;20033;-65
2022/02/25 12:33:44;;;;;;;11.57;1.75;;;8.40;86.80;;;;;;5051335;28;20029;-65
2022/02/25 12:36:16;;;;;;;8.68;1.13;;;8.30;88.00;;;;;;5047151;28;20032;-71
2022/02/25 12:38:42;;;;;;;11.85;2.20;;;8.10;88.50;;;;;;5053765;28;20078;-65
2022/02/25 12:41:14;;;;;;;12.90;2.00;;;8.00;88.90;;;;;;5054167;28;20032;-66
2022/02/25 12:43:45;;;;;;;13.40;1.77;;;7.90;89.50;;;;;;5067512;28;20045;-66
2022/02/25 12:46:10;;;;;;;11.35;1.85;;;7.80;90.10;;;;;;5052850;28;20084;-66
2022/02/25 12:48:36;;;;;;;15.60;2.15;;;7.80;90.50;;;;;;5053201;28;20167;-66
2022/02/25 12:51:03;;;;;;;13.73;1.88;;;7.70;90.90;;;;;;5052364;28;20013;-66
2022/02/25 12:53:29;;;;;;;13.85;1.80;;;7.90;91.30;;;;;;5052574;28;20507;-66
2022/02/25 12:55:59;;;;;;;11.95;1.92;;;8.80;92.00;;;;;;5050297;28;20039;-66
2022/02/25 12:58:35;;;;;;;9.77;1.67;;;11.20;90.40;;;;;;5054036;28;20172;-65
2022/02/25 13:01:01;;;;;;;7.95;1.38;;;13.50;82.80;;;;;;5038496;28;20025;-66
2022/02/25 13:03:27;;;;;;;8.40;1.83;;;15.40;76.90;;;;;;5054186;28;20090;-66
2022/02/25 13:05:56;;;;;;;8.55;2.05;;;16.90;68.40;;;;;;5052153;28;20025;-66
2022/02/25 13:08:28;;;;;;;7.80;1.53;;;18.00;63.90;;;;;;5051025;28;20500;-66
2022/02/25 13:11:03;;;;;;;8.68;1.65;;;19.00;61.10;;;;;;5068203;28;20252;-66
2022/02/25 13:13:30;;;;;;;5.72;1.35;;;19.90;57.20;;;;;;5053887;28;20082;-66
2022/02/25 13:16:07;;;;;;;4.35;1.45;;;20.30;54.60;;;;;;5053395;28;20025;-66
2022/02/25 13:18:34;;;;;;;7.85;1.50;;;20.80;54.60;;;;;;5053776;28;20034;-67
2022/02/25 13:21:06;;;;;;;8.93;1.40;;;21.30;53.50;;;;;;5053673;28;20026;-66
2022/02/25 13:23:33;;;;;;;6.63;1.35;;;22.00;52.00;;;;;;5049911;28;20032;-65
2022/02/25 13:26:03;;;;;;;8.43;1.95;;;22.60;51.00;;;;;;5051311;28;20057;-66
2022/02/25 13:28:29;;;;;;;4.50;1.30;;;23.00;48.50;;;;;;5051968;28;20025;-66
2022/02/25 13:30:55;;;;;;;7.13;1.85;;;23.30;48.10;;;;;;5051549;28;20527;-66
2022/02/25 13:33:22;;;;;;;9.00;1.67;;;23.60;46.90;;;;;;5067112;28;20045;-66
2022/02/25 13:35:59;;;;;;;7.35;1.63;;;23.80;46.70;;;;;;5051200;28;20547;-66